Etusivu
METAR-TAF:

METAR-TAF

Lentoasemat :

Huippuvuorten lentoasema

Longyearbyen, Norja

Leveyspiiri: 78-15N, Pituuspiiri: 015-28E, korkeus merenpinnasta: 2 m

Tämänhetkinen sää

Tämä raportti tehtiin 50 minuuttia sitten, kello 00.50 UTC
Tuuli 5 kn etelästä/lounaasta, vaihdellen etelän ja lännen välillä
Lämpötila -5°C
Kosteus 73%
Ilmanpaine 1021 hPa
Näkyvyys 10 km tai enemmän
Hajanaisia pilviä 2500 ft:n korkeudessa

METAR: ENSB 200050Z 21005KT 180V260 9999 SCT025 M05/M09 Q1021 RMK WIND 1400FT 22010KT

Aika: 02:40 (01:40 UTC)

Sääennuste

Ennuste voimassa 20. päivästä klo 00 UTC - 20. päivään klo 24 UTC
Tuuli 8 kn lounaasta
Näkyvyys 10 km tai enemmän
Muutamia pilviä 1500 ft:n korkeudessa
Hajanaisia pilviä 2500 ft:n korkeudessa

TAF: ENSB 2000/2024 23008KT 9999 FEW015 SCT025

Säähavainnot ja -ennusteet yli 4000 lentoasemalta (METAR- ja TAF-raportit).

Käytössä olevat sääasemat on merkitty karttaan keltaisilla ja punaisilla pisteillä.

Aseta hiiri pisteen päälle nähdäksesi sääaseman nimen.

Klikkaa sitten nähdäksesi säähavainnot ja -ennusteet.

Kartan vaihtaminen: klikkaa mustalla rastilla varustettuja vihreitä pisteitä, niin voit zoomata sisään; viivalla varustettua vihreää pistettä, niin voit zoomata ulos tai vihreitä nuolia, niin pääset viereisille kartoille.


METAR-TAF: